Aérodrome :
LOGIN :

S'inscrire | Disclaimer

   EN    FR    IT 

 










Légende :    VFR   VFR Marginal   IFR   IFR Intensif   IFR Très Intensif
Visi : 
Plafond : 
>= 8 km
>= 3000ft
5 à 8 km
1000 à 3000 ft
1500m à 5 km
500 à 1000 ft
800 à 1500m
200 à 500 ft
< 800m
< 200 ft
Symboles :   Orages  Brouillard  Fortes neiges  Fortes précipitations  Vent > 20 kt
SIGMETs :   Divers  Orages  Givrage  Turbulence  Onde Orograph.  Cendres Volcan.






- Altitude de l'aérodrome : 665 ft
- Code IATA : NOC


EIKN - Connaught / Knock- Ireland West

DERNIER METAR :
  • 130700Z 27023KT 9999 SCT016 FEW021CB BKN034 05/03 Q0978 NOSIG

METARs EXPIRÉS :
  • 130630Z 27023G36KT 9000 -SHRA BKN016 FEW020CB BKN030 05/03 Q0978 NOSIG
  • 130600Z 27024G35KT 9999 BKN015 BKN031 05/03 Q0977 NOSIG

TAF TAF EIKN
Valide du 13 à 06h jusqu'au 14 à 06h UTC


130500Z 1306/1406 29020G30KT 9999 FEW015 BKN030
TEMPO 1306/1308 29025G45KT
TEMPO 1306/1318 -SHRA SCT018CB
PROB30
TEMPO 1306/1310 4000 SHRA
BECMG 1313/1315 26015G25KT
BECMG 1316/1318 26012KT
BECMG 1320/1322 27015G25KT
TEMPO 1401/1406 25025G35KT RA FEW018CB



MET'MAP, la Météo Aéronautique d'un coup d'oeil ! - Copyright ORBIFLY Décembre 2007 - Disclaimer

ORBIFLY MET'MAP TEAM :

Programmation & Développement : Alexandra Zaïnal
Sur une idée originale de : Baudouin d'Aumeries
Assistance à la programmation : Marc-Olivier Méhu
Soutien technique & logistique : Manuel Goepfert

Contact : metmap@orbifly.com




SOURCES & CREDITS :

   NOAA